Time;durP1;ratioP1;P1;durP2;ratioP2;P2;SDS_P1;SDS_P2;PMS_P1;PMS_P2;Temp;Humidity;BMP_temperature;BMP_pressure;BME280_temperature;BME280_humidity;BME280_pressure;Samples;Min_cycle;Max_cycle;Signal;HPM_P1;HPM_P2
2022/09/20 00:01:43;;;;;;;6.55;1.40;;;9.40;99.90;;;;;;4990370;28;20053;-73
2022/09/20 00:04:29;;;;;;;7.95;1.65;;;9.40;99.90;;;;;;4983640;28;20467;-73
2022/09/20 00:07:15;;;;;;;8.13;1.63;;;9.40;99.90;;;;;;4984314;28;20061;-72
2022/09/20 00:10:01;;;;;;;9.18;1.48;;;9.30;99.90;;;;;;4985428;28;20129;-73
2022/09/20 00:12:47;;;;;;;9.18;1.65;;;9.30;99.90;;;;;;4986287;28;20092;-73
2022/09/20 00:15:38;;;;;;;9.82;1.60;;;9.30;99.90;;;;;;4988392;28;20569;-73
2022/09/20 00:18:25;;;;;;;15.50;1.73;;;9.20;99.90;;;;;;4986511;28;20149;-73
2022/09/20 00:21:16;;;;;;;11.50;1.83;;;9.20;99.90;;;;;;4986786;28;20061;-74
2022/09/20 00:24:03;;;;;;;15.85;1.90;;;9.20;99.90;;;;;;4978104;28;20050;-73
2022/09/20 00:26:49;;;;;;;9.48;1.80;;;9.20;99.90;;;;;;4980639;28;20414;-73
2022/09/20 00:29:35;;;;;;;15.52;1.80;;;9.20;99.90;;;;;;4976075;28;20053;-73
2022/09/20 00:32:21;;;;;;;15.68;1.70;;;9.20;99.90;;;;;;4983652;28;20058;-73
2022/09/20 00:35:07;;;;;;;12.23;1.67;;;9.20;99.90;;;;;;4969415;28;20050;-73
2022/09/20 00:37:53;;;;;;;9.68;1.60;;;9.20;99.90;;;;;;4982563;28;20510;-73
2022/09/20 00:40:41;;;;;;;14.68;1.88;;;9.20;99.90;;;;;;4975995;28;20396;-73
2022/09/20 00:43:39;;;;;;;9.43;2.10;;;9.10;99.90;;;;;;4978265;28;20050;-73
2022/09/20 00:46:28;;;;;;;11.20;1.42;;;9.20;99.90;;;;;;4982238;28;20402;-73
2022/09/20 00:49:19;;;;;;;11.55;2.08;;;9.20;99.90;;;;;;4976308;28;20667;-74
2022/09/20 00:52:04;;;;;;;11.90;1.80;;;9.20;99.90;;;;;;4975060;28;20053;-73
2022/09/20 00:54:51;;;;;;;12.27;1.70;;;9.10;99.90;;;;;;4984155;28;20042;-74
2022/09/20 00:57:38;;;;;;;8.55;1.50;;;9.10;99.90;;;;;;4986060;28;20042;-73
2022/09/20 01:00:25;;;;;;;11.13;1.98;;;9.10;99.90;;;;;;4985035;28;20089;-73
2022/09/20 01:03:14;;;;;;;8.25;1.60;;;9.10;99.90;;;;;;5003656;28;20053;-73
2022/09/20 01:06:05;;;;;;;9.63;1.90;;;9.10;99.90;;;;;;4981955;28;20042;-73
2022/09/20 01:08:53;;;;;;;7.30;1.55;;;9.10;99.90;;;;;;4962814;28;20078;-74
2022/09/20 01:11:40;;;;;;;10.65;1.27;;;9.00;99.90;;;;;;4987489;28;20459;-74
2022/09/20 01:14:26;;;;;;;7.95;1.58;;;9.10;99.90;;;;;;4973456;28;20058;-73
2022/09/20 01:17:13;;;;;;;8.88;1.60;;;9.00;99.90;;;;;;4985229;28;20136;-73
2022/09/20 01:20:08;;;;;;;9.00;1.75;;;9.10;99.90;;;;;;4981246;28;20046;-73
2022/09/20 01:23:03;;;;;;;8.20;1.58;;;9.00;99.90;;;;;;4979817;28;20054;-73
2022/09/20 01:26:11;;;;;;;10.68;1.70;;;9.00;99.90;;;;;;4981963;28;20745;-73
2022/09/20 01:29:09;;;;;;;9.77;1.50;;;9.00;99.90;;;;;;4977500;28;20038;-73
2022/09/20 01:31:59;;;;;;;7.80;1.90;;;9.00;99.90;;;;;;4969701;28;20046;-73
2022/09/20 01:34:49;;;;;;;7.57;1.65;;;8.90;99.90;;;;;;4973394;28;20042;-73
2022/09/20 01:37:49;;;;;;;11.05;1.80;;;8.90;99.90;;;;;;4983972;28;20069;-73
2022/09/20 01:40:42;;;;;;;6.80;1.52;;;8.90;99.90;;;;;;4978823;28;20573;-74
2022/09/20 01:44:09;;;;;;;11.13;1.83;;;8.90;99.90;;;;;;4982140;28;20038;-74
2022/09/20 01:47:43;;;;;;;13.75;1.95;;;8.80;99.90;;;;;;4978732;28;20053;-73
2022/09/20 01:50:54;;;;;;;8.65;1.58;;;8.80;99.90;;;;;;4974456;28;20555;-72
2022/09/20 01:53:47;;;;;;;12.50;1.88;;;8.80;99.90;;;;;;4974687;28;20466;-73
2022/09/20 01:56:43;;;;;;;10.23;2.03;;;8.80;99.90;;;;;;4979849;28;20104;-75
2022/09/20 02:00:01;;;;;;;9.13;1.70;;;8.80;99.90;;;;;;4970692;28;20050;-72
2022/09/20 02:02:50;;;;;;;14.18;1.88;;;8.80;99.90;;;;;;4989009;28;20058;-73
2022/09/20 02:06:00;;;;;;;10.77;1.73;;;8.80;99.90;;;;;;4976257;28;20141;-74
2022/09/20 02:09:02;;;;;;;9.55;1.63;;;8.80;99.90;;;;;;4989417;28;20050;-75
2022/09/20 02:12:25;;;;;;;4.60;1.27;;;8.80;99.90;;;;;;4989886;28;20046;-72
2022/09/20 02:15:40;;;;;;;11.07;1.60;;;8.80;99.90;;;;;;4987209;28;20081;-73
2022/09/20 02:18:25;;;;;;;7.68;1.45;;;8.80;99.90;;;;;;4982633;28;20072;-73
2022/09/20 02:21:41;;;;;;;8.80;1.55;;;8.80;99.90;;;;;;4977683;28;20066;-73
2022/09/20 02:24:32;;;;;;;8.27;1.45;;;8.80;99.90;;;;;;4972029;28;20473;-74
2022/09/20 02:27:44;;;;;;;12.45;1.77;;;8.90;99.90;;;;;;4975393;28;20072;-74
2022/09/20 02:31:01;;;;;;;12.25;1.70;;;8.90;99.90;;;;;;4986655;28;20082;-73
2022/09/20 02:34:23;;;;;;;13.15;2.25;;;8.90;99.90;;;;;;4981077;28;20050;-76
2022/09/20 02:37:24;;;;;;;10.40;1.60;;;8.90;99.90;;;;;;4957807;28;20046;-73
2022/09/20 02:40:22;;;;;;;8.93;1.50;;;8.90;99.90;;;;;;4983417;28;20058;-72
2022/09/20 02:43:36;;;;;;;10.60;1.60;;;8.90;99.90;;;;;;4964856;28;20047;-73
2022/09/20 02:46:34;;;;;;;9.73;2.15;;;8.90;99.90;;;;;;4975647;28;20105;-73
2022/09/20 02:49:37;;;;;;;7.78;1.73;;;8.90;99.90;;;;;;4990456;28;20077;-73
2022/09/20 02:52:45;;;;;;;9.20;1.50;;;8.90;99.90;;;;;;4980487;28;20074;-72
2022/09/20 02:55:37;;;;;;;12.70;2.22;;;8.90;99.90;;;;;;4982101;28;20054;-73
2022/09/20 02:58:58;;;;;;;12.30;1.83;;;8.90;99.90;;;;;;4977563;28;20503;-73
2022/09/20 03:01:53;;;;;;;9.48;1.58;;;8.90;99.90;;;;;;4985707;28;20320;-73
2022/09/20 03:05:17;;;;;;;8.95;1.50;;;8.80;99.90;;;;;;4985929;28;20125;-73
2022/09/20 03:08:30;;;;;;;9.63;1.48;;;8.80;99.90;;;;;;4993279;28;20104;-73
2022/09/20 03:11:36;;;;;;;8.73;1.50;;;8.80;99.90;;;;;;4989698;28;20057;-73
2022/09/20 03:14:31;;;;;;;11.05;1.77;;;8.80;99.90;;;;;;4990839;28;20532;-72
2022/09/20 03:17:35;;;;;;;7.57;1.50;;;8.80;99.90;;;;;;4989491;28;20101;-73
2022/09/20 03:20:45;;;;;;;12.45;2.08;;;8.80;99.90;;;;;;4990238;28;20057;-73
2022/09/20 03:23:56;;;;;;;9.15;1.85;;;8.90;99.90;;;;;;4986297;28;20093;-73
2022/09/20 03:26:54;;;;;;;11.32;1.40;;;8.80;99.90;;;;;;4983623;28;20042;-73
2022/09/20 03:29:58;;;;;;;11.00;1.50;;;8.90;99.90;;;;;;4983117;28;20465;-73
2022/09/20 03:32:57;;;;;;;10.40;1.40;;;8.90;99.90;;;;;;4978659;28;20696;-73
2022/09/20 03:36:01;;;;;;;9.52;1.40;;;9.00;99.90;;;;;;4986392;28;20456;-73
2022/09/20 03:38:57;;;;;;;5.88;1.25;;;9.00;99.90;;;;;;4964271;28;20084;-73
2022/09/20 03:41:52;;;;;;;10.45;1.92;;;9.10;99.90;;;;;;4985144;28;20050;-73
2022/09/20 03:44:57;;;;;;;8.80;1.30;;;9.10;99.90;;;;;;4988205;28;20046;-73
2022/09/20 03:48:31;;;;;;;6.75;1.48;;;9.20;99.90;;;;;;4987061;28;20051;-73
2022/09/20 03:51:35;;;;;;;10.20;2.08;;;9.20;99.90;;;;;;4982351;28;20077;-73
2022/09/20 03:54:33;;;;;;;8.65;1.50;;;9.30;99.90;;;;;;4984836;28;20536;-73
2022/09/20 03:57:52;;;;;;;7.72;1.40;;;9.30;99.90;;;;;;4984007;28;20450;-73
2022/09/20 04:01:07;;;;;;;13.80;1.90;;;9.40;99.90;;;;;;4978267;28;20054;-73
2022/09/20 04:04:18;;;;;;;9.93;1.23;;;9.40;99.90;;;;;;4985488;28;20077;-74
2022/09/20 04:07:30;;;;;;;13.05;2.15;;;9.50;99.90;;;;;;4988529;28;20050;-73
2022/09/20 04:10:34;;;;;;;6.80;1.40;;;9.50;99.90;;;;;;4992186;28;20507;-74
2022/09/20 04:13:46;;;;;;;12.52;2.15;;;9.60;99.90;;;;;;4984632;28;20507;-74
2022/09/20 04:16:48;;;;;;;6.38;1.35;;;9.60;99.90;;;;;;4988464;28;20042;-74
2022/09/20 04:19:45;;;;;;;9.85;1.63;;;9.70;99.90;;;;;;4968339;28;20129;-73
2022/09/20 04:22:32;;;;;;;9.02;1.60;;;9.70;99.90;;;;;;4976096;28;20046;-73
2022/09/20 04:25:39;;;;;;;6.53;1.30;;;9.80;99.90;;;;;;4988031;28;20057;-73
2022/09/20 04:28:33;;;;;;;10.07;1.58;;;9.80;99.90;;;;;;4978697;28;20055;-74
2022/09/20 04:31:38;;;;;;;7.47;1.58;;;9.90;99.90;;;;;;4980338;28;20047;-74
2022/09/20 04:37:37;;;;;;;6.70;1.30;;;10.00;99.90;;;;;;4983639;28;20101;-74
2022/09/20 04:40:39;;;;;;;7.28;1.50;;;10.00;99.90;;;;;;4986379;28;20057;-74
2022/09/20 04:43:50;;;;;;;7.95;1.58;;;10.00;99.90;;;;;;4983138;28;20054;-74
2022/09/20 04:47:17;;;;;;;13.95;1.40;;;10.10;99.90;;;;;;4978386;28;20125;-73
2022/09/20 04:50:41;;;;;;;10.38;1.40;;;10.10;99.90;;;;;;4979622;28;20043;-74
2022/09/20 04:53:56;;;;;;;7.18;1.33;;;10.20;99.90;;;;;;4990553;28;20085;-74
2022/09/20 04:57:00;;;;;;;8.23;1.48;;;10.20;99.90;;;;;;4981462;28;20396;-74
2022/09/20 04:59:55;;;;;;;8.85;1.27;;;10.20;99.90;;;;;;4990137;28;20069;-74
2022/09/20 05:02:59;;;;;;;5.35;1.27;;;10.20;99.90;;;;;;4977020;28;20237;-74
2022/09/20 05:06:24;;;;;;;13.32;1.65;;;10.30;99.90;;;;;;4977645;28;20482;-73
2022/09/20 05:09:41;;;;;;;7.72;1.52;;;10.30;99.90;;;;;;4981769;28;20052;-74
2022/09/20 05:12:45;;;;;;;7.65;1.45;;;10.30;99.90;;;;;;4984451;28;20043;-73
2022/09/20 05:15:57;;;;;;;8.18;1.63;;;10.30;99.90;;;;;;4989633;28;20077;-73
2022/09/20 05:19:06;;;;;;;7.15;1.50;;;10.30;99.90;;;;;;4980575;28;20052;-74
2022/09/20 05:22:23;;;;;;;5.10;1.35;;;10.30;99.90;;;;;;4983703;28;20483;-75
2022/09/20 05:25:43;;;;;;;7.55;1.50;;;10.20;99.90;;;;;;4975174;28;20085;-75
2022/09/20 05:28:38;;;;;;;7.28;1.35;;;10.20;99.90;;;;;;4985552;28;20049;-73
2022/09/20 05:31:43;;;;;;;4.78;1.30;;;10.20;99.90;;;;;;4987296;28;20050;-76
2022/09/20 05:34:41;;;;;;;6.90;1.30;;;10.20;99.90;;;;;;4969427;28;20720;-75
2022/09/20 05:37:45;;;;;;;4.45;1.48;;;10.20;99.90;;;;;;4985650;28;20073;-74
2022/09/20 05:41:03;;;;;;;4.15;1.30;;;10.20;99.90;;;;;;4991075;28;20050;-73
2022/09/20 05:44:46;;;;;;;8.82;1.48;;;10.20;99.90;;;;;;4979411;28;20038;-76
2022/09/20 05:47:58;;;;;;;5.43;1.30;;;10.20;99.90;;;;;;4918942;28;20039;-76
2022/09/20 05:51:08;;;;;;;3.22;1.13;;;10.30;99.90;;;;;;4983135;28;20046;-73
2022/09/20 05:54:20;;;;;;;6.30;1.50;;;10.30;99.90;;;;;;4985424;28;20053;-77
2022/09/20 05:57:28;;;;;;;8.48;1.80;;;10.30;99.90;;;;;;4986908;28;20661;-77
2022/09/20 06:00:19;;;;;;;6.40;1.40;;;10.40;99.90;;;;;;4984972;28;20042;-77
2022/09/20 06:03:36;;;;;;;38.70;3.10;;;10.40;99.90;;;;;;4982249;28;20410;-76
2022/09/20 06:06:34;;;;;;;15.25;1.60;;;10.40;99.90;;;;;;4981292;28;20059;-76
2022/09/20 06:09:52;;;;;;;3.20;1.08;;;10.50;99.90;;;;;;4977902;28;20046;-76
2022/09/20 06:12:44;;;;;;;7.03;1.42;;;10.50;99.90;;;;;;4979424;28;20048;-76
2022/09/20 06:15:56;;;;;;;6.95;1.23;;;10.50;99.90;;;;;;4985543;28;20627;-76
2022/09/20 06:18:44;;;;;;;4.65;1.23;;;10.50;99.90;;;;;;4977773;28;20078;-76
2022/09/20 06:21:38;;;;;;;6.38;1.55;;;10.60;99.90;;;;;;4990965;28;20096;-77
2022/09/20 06:24:40;;;;;;;4.90;1.35;;;10.60;99.90;;;;;;4971464;28;20043;-77
2022/09/20 06:28:08;;;;;;;3.72;1.23;;;10.60;99.90;;;;;;4988733;28;20046;-77
2022/09/20 06:30:56;;;;;;;6.38;1.92;;;10.70;99.90;;;;;;4976018;28;20088;-77
2022/09/20 06:33:56;;;;;;;5.47;1.33;;;10.70;99.90;;;;;;4981496;28;20478;-77
2022/09/20 06:43:39;;;;;;;4.95;1.52;;;10.90;99.90;;;;;;4983691;28;20759;-77
2022/09/20 06:46:35;;;;;;;6.40;1.00;;;11.00;99.90;;;;;;4994061;28;20042;-77
2022/09/20 06:49:21;;;;;;;5.10;1.10;;;11.00;99.90;;;;;;4982852;28;20065;-77
2022/09/20 06:52:14;;;;;;;2.08;0.90;;;11.00;99.90;;;;;;4982091;28;20535;-77
2022/09/20 06:55:00;;;;;;;5.20;1.10;;;11.00;99.90;;;;;;4985115;28;20073;-76
2022/09/20 06:57:46;;;;;;;6.97;1.05;;;11.00;99.90;;;;;;4965424;28;20050;-76
2022/09/20 07:00:32;;;;;;;7.30;1.30;;;11.00;99.90;;;;;;4973119;28;20069;-76
2022/09/20 07:03:20;;;;;;;4.88;1.20;;;11.00;99.90;;;;;;4970738;28;20050;-76
2022/09/20 07:06:07;;;;;;;6.22;1.00;;;11.00;99.90;;;;;;4978918;28;20039;-76
2022/09/20 07:08:53;;;;;;;5.03;1.30;;;10.90;99.90;;;;;;4977012;28;20070;-76
2022/09/20 07:11:39;;;;;;;4.72;1.38;;;10.90;99.90;;;;;;4982189;28;20038;-76
2022/09/20 07:14:25;;;;;;;8.40;1.65;;;10.90;99.90;;;;;;4981416;28;20046;-76
2022/09/20 07:17:13;;;;;;;3.58;1.13;;;10.90;99.90;;;;;;4986283;28;20512;-76
2022/09/20 07:19:59;;;;;;;7.82;1.50;;;10.90;99.90;;;;;;4980089;28;20491;-77
2022/09/20 07:22:46;;;;;;;8.05;1.73;;;10.90;99.90;;;;;;4996647;28;20058;-77
2022/09/20 07:25:32;;;;;;;5.72;1.70;;;10.90;99.90;;;;;;4987460;28;20057;-77
2022/09/20 07:28:21;;;;;;;8.00;1.40;;;10.90;99.90;;;;;;4987498;28;20050;-77
2022/09/20 07:31:06;;;;;;;8.02;1.58;;;10.90;99.90;;;;;;4979727;28;20074;-78
2022/09/20 07:33:53;;;;;;;4.25;1.30;;;10.90;99.90;;;;;;4975166;28;20046;-77
2022/09/20 07:36:39;;;;;;;7.85;2.28;;;11.00;99.90;;;;;;4980390;28;20047;-77
2022/09/20 07:39:25;;;;;;;8.07;1.45;;;11.10;99.90;;;;;;4985124;28;20034;-77
2022/09/20 07:42:12;;;;;;;9.65;1.80;;;11.20;99.90;;;;;;4982466;28;20529;-77
2022/09/20 07:45:00;;;;;;;9.30;1.73;;;11.30;99.90;;;;;;4987919;28;20089;-77
2022/09/20 07:47:46;;;;;;;8.73;2.05;;;11.50;99.90;;;;;;4976255;28;20668;-78
2022/09/20 07:50:33;;;;;;;9.40;1.90;;;11.60;99.90;;;;;;4973653;28;20042;-77
2022/09/20 07:53:19;;;;;;;9.63;2.17;;;11.70;99.90;;;;;;4992365;28;20132;-77
2022/09/20 07:56:11;;;;;;;8.23;1.38;;;11.90;99.90;;;;;;4989448;28;20038;-77
2022/09/20 07:58:57;;;;;;;7.35;1.88;;;12.00;99.90;;;;;;4971526;28;20039;-77
2022/09/20 08:01:42;;;;;;;5.13;1.30;;;12.10;99.90;;;;;;4987334;28;20399;-77
2022/09/20 08:04:28;;;;;;;6.45;1.30;;;12.20;99.90;;;;;;4986105;28;20455;-77
2022/09/20 08:07:14;;;;;;;6.55;1.30;;;12.30;99.90;;;;;;4970125;28;20054;-77
2022/09/20 08:10:01;;;;;;;7.15;1.35;;;12.40;99.90;;;;;;4974494;28;20574;-77
2022/09/20 08:12:47;;;;;;;5.53;1.10;;;12.60;99.90;;;;;;4995305;28;20134;-78
2022/09/20 08:15:33;;;;;;;6.13;1.20;;;12.70;99.90;;;;;;4986309;28;20642;-77
2022/09/20 08:18:19;;;;;;;5.25;1.08;;;12.80;99.90;;;;;;4988809;28;20046;-78
2022/09/20 08:21:07;;;;;;;6.20;1.00;;;12.90;99.90;;;;;;4987905;28;20042;-77
2022/09/20 08:23:53;;;;;;;4.15;0.90;;;13.00;99.90;;;;;;5004278;28;20176;-78
2022/09/20 08:26:39;;;;;;;3.53;1.10;;;13.10;99.90;;;;;;4991286;28;20528;-78
2022/09/20 08:29:25;;;;;;;5.57;1.13;;;13.10;99.90;;;;;;4973175;28;20043;-78
2022/09/20 08:32:11;;;;;;;7.65;1.13;;;13.20;99.90;;;;;;4977458;28;20050;-78
2022/09/20 08:34:57;;;;;;;8.43;1.95;;;13.30;99.90;;;;;;4988279;28;20050;-78
2022/09/20 08:37:44;;;;;;;6.47;1.33;;;13.40;99.90;;;;;;4990206;28;20050;-78
2022/09/20 08:40:30;;;;;;;6.05;1.10;;;13.50;99.90;;;;;;4988455;28;20046;-78
2022/09/20 08:43:16;;;;;;;4.57;0.90;;;13.60;99.90;;;;;;4991961;28;20046;-76
2022/09/20 08:46:04;;;;;;;6.07;1.15;;;13.60;99.90;;;;;;4966138;28;20051;-76
2022/09/20 08:48:51;;;;;;;6.60;1.42;;;13.70;99.90;;;;;;4981478;28;20042;-76
2022/09/20 08:51:38;;;;;;;7.03;1.15;;;13.70;99.90;;;;;;4970663;28;20105;-76
2022/09/20 08:54:25;;;;;;;4.75;1.25;;;13.80;99.90;;;;;;4971740;28;20369;-76
2022/09/20 08:57:16;;;;;;;6.80;1.30;;;13.80;99.90;;;;;;4978744;28;20085;-76
2022/09/20 09:00:05;;;;;;;6.13;1.25;;;13.90;99.90;;;;;;4988117;28;20053;-76
2022/09/20 09:02:54;;;;;;;5.90;1.20;;;14.00;99.90;;;;;;4973026;28;20058;-75
2022/09/20 09:05:47;;;;;;;4.90;1.00;;;14.10;99.90;;;;;;4983814;28;20085;-75
2022/09/20 09:08:36;;;;;;;5.70;1.30;;;14.20;99.90;;;;;;4976858;28;20054;-76
2022/09/20 09:11:22;;;;;;;4.78;1.08;;;14.20;99.90;;;;;;4984790;28;20066;-75
2022/09/20 09:17:27;;;;;;;10.07;1.10;;;14.30;99.90;;;;;;4988840;28;20116;-75
2022/09/20 09:20:13;;;;;;;6.50;1.38;;;14.50;99.90;;;;;;4981328;28;20054;-75
2022/09/20 09:23:05;;;;;;;5.75;0.98;;;14.60;99.90;;;;;;4976480;28;20109;-75
2022/09/20 09:25:55;;;;;;;3.22;0.90;;;14.70;99.90;;;;;;4981764;28;20508;-76
2022/09/20 09:28:41;;;;;;;5.80;0.90;;;14.70;99.90;;;;;;4981671;28;20106;-75
2022/09/20 09:31:27;;;;;;;5.20;1.00;;;14.80;99.90;;;;;;4977170;28;20042;-76
2022/09/20 09:34:34;;;;;;;6.15;1.35;;;14.90;99.90;;;;;;4990936;28;20093;-75
2022/09/20 09:37:29;;;;;;;5.68;1.10;;;15.00;99.90;;;;;;4963669;28;20078;-75
2022/09/20 09:40:18;;;;;;;6.05;1.10;;;15.10;99.90;;;;;;4980648;28;20058;-75
2022/09/20 09:43:03;;;;;;;4.93;1.00;;;15.20;99.90;;;;;;4974495;28;20156;-76
2022/09/20 09:45:49;;;;;;;5.43;1.10;;;15.30;99.90;;;;;;4983700;28;20050;-75
2022/09/20 09:48:35;;;;;;;6.38;1.33;;;15.40;99.90;;;;;;4983121;28;20049;-75
2022/09/20 09:51:22;;;;;;;5.88;1.50;;;15.60;99.90;;;;;;5010306;28;20046;-76
2022/09/20 09:54:16;;;;;;;7.03;1.38;;;15.70;99.90;;;;;;4980741;28;20054;-76
2022/09/20 09:57:23;;;;;;;6.68;1.13;;;15.90;99.90;;;;;;4986167;28;20043;-75
2022/09/20 10:00:12;;;;;;;4.13;1.10;;;16.00;99.90;;;;;;4991919;28;20113;-76
2022/09/20 10:03:04;;;;;;;5.35;0.98;;;16.00;99.90;;;;;;4986510;28;20547;-74
2022/09/20 10:06:03;;;;;;;6.35;1.20;;;16.10;99.90;;;;;;4967781;28;20058;-74
2022/09/20 10:09:00;;;;;;;6.25;0.95;;;16.10;99.90;;;;;;5002023;28;20514;-74
2022/09/20 10:11:57;;;;;;;5.03;1.10;;;16.10;99.90;;;;;;4983498;28;20400;-74
2022/09/20 10:14:52;;;;;;;5.07;1.20;;;16.10;99.90;;;;;;4983083;28;20042;-74
2022/09/20 10:17:50;;;;;;;4.28;0.95;;;16.20;99.90;;;;;;4981784;28;20042;-74
2022/09/20 10:20:52;;;;;;;7.13;1.17;;;16.20;99.90;;;;;;4975414;28;20133;-74
2022/09/20 10:23:57;;;;;;;5.65;1.13;;;16.20;99.90;;;;;;4978238;28;20046;-74
2022/09/20 10:27:03;;;;;;;7.63;1.27;;;16.30;99.90;;;;;;4966955;28;20380;-74
2022/09/20 10:29:58;;;;;;;5.28;1.10;;;16.30;99.90;;;;;;4989096;28;20042;-74
2022/09/20 10:33:18;;;;;;;4.22;1.10;;;16.30;99.90;;;;;;4991160;28;20421;-74
2022/09/20 10:36:09;;;;;;;4.32;0.95;;;16.00;99.90;;;;;;4973299;28;20096;-74
2022/09/20 10:39:08;;;;;;;4.75;0.90;;;15.40;99.90;;;;;;4974716;28;20054;-76
2022/09/20 10:45:56;;;;;;;3.13;0.77;;;14.70;99.90;;;;;;4979378;28;20096;-74
2022/09/20 10:48:53;;;;;;;2.47;0.90;;;14.50;99.90;;;;;;4973903;28;20046;-74
2022/09/20 10:52:00;;;;;;;3.63;0.82;;;14.30;99.90;;;;;;4980636;28;20102;-74
2022/09/20 10:55:05;;;;;;;6.15;1.10;;;14.20;99.90;;;;;;4987123;28;20129;-74
2022/09/20 10:58:19;;;;;;;3.25;0.82;;;14.10;99.90;;;;;;4968457;28;20141;-74
2022/09/20 11:01:20;;;;;;;4.80;1.02;;;14.10;99.90;;;;;;4989819;28;20421;-75
2022/09/20 11:04:16;;;;;;;3.33;0.90;;;14.10;99.90;;;;;;4977291;28;20042;-75
2022/09/20 11:07:08;;;;;;;4.78;0.95;;;14.10;99.90;;;;;;4977900;28;20047;-74
2022/09/20 11:10:06;;;;;;;2.63;0.73;;;14.10;99.90;;;;;;4985209;28;20078;-75
2022/09/20 11:12:59;;;;;;;2.92;0.80;;;14.10;99.90;;;;;;4987228;28;20046;-73
2022/09/20 11:16:10;;;;;;;5.20;1.00;;;14.20;99.90;;;;;;4994221;28;20046;-74
2022/09/20 11:19:02;;;;;;;3.72;0.88;;;14.40;99.90;;;;;;4977856;28;20042;-74
2022/09/20 11:22:07;;;;;;;7.32;1.27;;;14.50;99.90;;;;;;4982691;28;20039;-75
2022/09/20 11:25:10;;;;;;;3.60;0.82;;;14.60;99.90;;;;;;4986760;28;20042;-75
2022/09/20 11:28:06;;;;;;;4.57;1.00;;;14.80;99.90;;;;;;4974144;28;20151;-74
2022/09/20 11:31:31;;;;;;;4.15;0.68;;;14.90;99.90;;;;;;4982626;28;20051;-75
2022/09/20 11:34:24;;;;;;;2.30;0.70;;;15.10;99.90;;;;;;4982608;28;20057;-75
2022/09/20 11:37:10;;;;;;;4.03;1.00;;;15.30;99.90;;;;;;4979844;28;20054;-74
2022/09/20 11:40:01;;;;;;;4.00;0.93;;;15.50;99.90;;;;;;4991111;28;20129;-75
2022/09/20 11:42:48;;;;;;;5.22;0.98;;;15.80;99.90;;;;;;4976479;28;20046;-72
2022/09/20 11:45:39;;;;;;;4.78;1.17;;;16.10;99.90;;;;;;4994074;28;20073;-75
2022/09/20 11:48:37;;;;;;;4.65;0.95;;;16.40;99.90;;;;;;4983865;28;20050;-75
2022/09/20 11:51:32;;;;;;;4.88;1.23;;;16.70;99.90;;;;;;4972641;28;20534;-73
2022/09/20 11:54:35;;;;;;;4.55;0.90;;;17.00;99.90;;;;;;4978678;28;20092;-73
2022/09/20 11:57:22;;;;;;;5.90;1.27;;;17.50;99.90;;;;;;4989388;28;20145;-72
2022/09/20 12:00:09;;;;;;;5.43;1.00;;;17.80;99.90;;;;;;4978909;28;20450;-72
2022/09/20 12:02:55;;;;;;;5.55;1.00;;;18.10;99.90;;;;;;4981352;28;20062;-72
2022/09/20 12:05:42;;;;;;;4.38;1.23;;;18.50;99.90;;;;;;4988153;28;20054;-72
2022/09/20 12:08:30;;;;;;;5.43;1.38;;;18.80;99.90;;;;;;4984930;28;20495;-72
2022/09/20 12:11:28;;;;;;;4.32;1.10;;;19.00;99.90;;;;;;4985169;28;20050;-72
2022/09/20 12:14:21;;;;;;;4.68;1.00;;;19.20;99.90;;;;;;4989081;28;20474;-72
2022/09/20 12:17:53;;;;;;;5.35;1.38;;;19.50;99.90;;;;;;5003874;28;20046;-72
2022/09/20 12:20:43;;;;;;;9.30;1.50;;;19.80;99.90;;;;;;4970065;28;20070;-72
2022/09/20 12:23:41;;;;;;;5.53;1.13;;;19.90;99.90;;;;;;4980340;28;20047;-72
2022/09/20 12:26:27;;;;;;;4.18;1.08;;;19.80;99.80;;;;;;4981356;28;20129;-73
2022/09/20 12:29:46;;;;;;;3.38;1.00;;;19.60;99.80;;;;;;4974067;28;20050;-72
2022/09/20 12:32:40;;;;;;;3.33;0.82;;;19.40;97.10;;;;;;4942596;28;20043;-72
2022/09/20 12:35:35;;;;;;;7.20;1.20;;;19.30;98.10;;;;;;4984686;28;20046;-73
2022/09/20 12:38:33;;;;;;;5.43;1.25;;;19.30;99.40;;;;;;4983437;28;20050;-72
2022/09/20 12:41:19;;;;;;;4.88;1.48;;;19.30;99.10;;;;;;4980932;28;20038;-72
2022/09/20 12:44:27;;;;;;;4.20;1.00;;;19.20;98.70;;;;;;4982198;28;20047;-72
2022/09/20 12:47:16;;;;;;;4.57;0.98;;;19.20;97.20;;;;;;4987583;28;20050;-72
2022/09/20 12:53:17;;;;;;;7.60;1.00;;;18.60;97.00;;;;;;4980089;28;20059;-73
2022/09/20 12:56:05;;;;;;;7.25;1.00;;;18.20;97.80;;;;;;4987074;28;20104;-73
2022/09/20 12:58:53;;;;;;;7.65;1.40;;;17.90;99.30;;;;;;4981520;28;20144;-74
2022/09/20 13:01:39;;;;;;;7.60;1.20;;;17.70;99.40;;;;;;4979175;28;20061;-73
2022/09/20 13:04:50;;;;;;;5.40;1.30;;;17.50;99.70;;;;;;4978233;28;20058;-73
2022/09/20 13:07:41;;;;;;;6.30;1.25;;;17.30;99.90;;;;;;4979211;28;20050;-73
2022/09/20 13:10:34;;;;;;;5.13;1.08;;;17.30;99.90;;;;;;4987308;28;20506;-73
2022/09/20 13:13:55;;;;;;;5.70;1.13;;;17.20;99.90;;;;;;4988485;28;20132;-73
2022/09/20 13:17:12;;;;;;;5.40;1.30;;;17.10;99.90;;;;;;4974126;28;20133;-72
2022/09/20 13:19:58;;;;;;;5.10;1.05;;;17.10;99.90;;;;;;4973818;28;20501;-72
2022/09/20 13:22:46;;;;;;;3.53;1.00;;;17.10;99.90;;;;;;4986493;28;20084;-74
2022/09/20 13:25:32;;;;;;;6.05;0.85;;;17.00;99.90;;;;;;4977886;28;20042;-74
2022/09/20 13:28:33;;;;;;;7.07;1.23;;;17.00;99.90;;;;;;4980700;28;20133;-74
2022/09/20 13:31:23;;;;;;;8.25;1.67;;;17.00;99.90;;;;;;4982731;28;20193;-73
2022/09/20 13:34:14;;;;;;;5.95;0.95;;;17.00;99.90;;;;;;4965863;28;20138;-74
2022/09/20 13:37:01;;;;;;;9.55;1.73;;;17.10;99.90;;;;;;4988288;28;20507;-74
2022/09/20 13:39:52;;;;;;;5.25;1.30;;;17.30;99.90;;;;;;4984750;28;20146;-74
2022/09/20 13:42:38;;;;;;;7.93;1.25;;;17.90;99.90;;;;;;4977072;28;20426;-74
2022/09/20 13:45:25;;;;;;;6.85;1.23;;;18.70;99.90;;;;;;4973922;28;20050;-74
2022/09/20 13:48:11;;;;;;;4.55;0.98;;;19.40;99.90;;;;;;4980969;28;20410;-74
2022/09/20 13:50:57;;;;;;;6.30;1.38;;;19.50;98.60;;;;;;4980442;28;20046;-74
2022/09/20 13:53:45;;;;;;;4.95;0.93;;;19.50;97.20;;;;;;4979192;28;20046;-74
2022/09/20 13:56:31;;;;;;;3.83;0.95;;;19.30;94.90;;;;;;4983372;28;20065;-74
2022/09/20 13:59:18;;;;;;;4.32;1.05;;;19.00;94.80;;;;;;4978918;28;20038;-74
2022/09/20 14:02:16;;;;;;;6.22;0.75;;;18.90;95.00;;;;;;4965749;28;20046;-74
2022/09/20 14:05:04;;;;;;;4.10;0.80;;;19.40;94.60;;;;;;4975587;28;20050;-73
2022/09/20 14:07:51;;;;;;;3.28;0.90;;;20.00;93.10;;;;;;4983478;28;20042;-74
2022/09/20 14:10:42;;;;;;;4.75;0.95;;;20.50;91.80;;;;;;4985159;28;20042;-74
2022/09/20 14:13:37;;;;;;;1.98;0.65;;;21.00;90.50;;;;;;4985950;28;20058;-74
2022/09/20 14:16:33;;;;;;;5.30;1.00;;;21.00;84.60;;;;;;4985332;28;20121;-74
2022/09/20 14:19:22;;;;;;;2.65;0.60;;;21.20;87.80;;;;;;4969422;28;20065;-75
2022/09/20 14:22:16;;;;;;;3.60;0.85;;;21.60;87.20;;;;;;4977302;28;20058;-74
2022/09/20 14:25:19;;;;;;;4.82;0.95;;;21.80;83.50;;;;;;4978615;28;20050;-75
2022/09/20 14:28:19;;;;;;;6.47;0.85;;;21.80;81.30;;;;;;4972959;28;20444;-74
2022/09/20 14:31:07;;;;;;;2.17;0.70;;;22.10;81.30;;;;;;4979383;28;20384;-74
2022/09/20 14:34:00;;;;;;;6.38;1.25;;;22.60;79.50;;;;;;4977008;28;20403;-75
2022/09/20 14:36:48;;;;;;;2.83;0.73;;;22.40;76.20;;;;;;4980999;28;20043;-74
2022/09/20 14:39:52;;;;;;;3.15;0.90;;;21.90;76.20;;;;;;4984418;28;20050;-77
2022/09/20 14:42:45;;;;;;;4.47;0.90;;;21.50;76.70;;;;;;4965517;28;20412;-74
2022/09/20 14:45:32;;;;;;;5.45;0.80;;;20.80;79.90;;;;;;4976950;28;20128;-75
2022/09/20 14:48:18;;;;;;;5.88;0.98;;;20.40;81.10;;;;;;4983953;28;20096;-75
2022/09/20 14:51:24;;;;;;;2.92;0.75;;;19.90;81.60;;;;;;4999040;28;20133;-74
2022/09/20 14:54:10;;;;;;;2.88;0.80;;;19.50;81.90;;;;;;4984348;28;20046;-75
2022/09/20 14:57:00;;;;;;;2.72;0.70;;;19.10;83.70;;;;;;4988083;28;20557;-75
2022/09/20 14:59:55;;;;;;;2.40;0.70;;;18.70;85.70;;;;;;4986724;28;20050;-74
2022/09/20 15:02:43;;;;;;;3.03;0.98;;;18.40;88.50;;;;;;4988518;28;20046;-75
2022/09/20 15:05:30;;;;;;;5.30;1.08;;;18.30;89.00;;;;;;4983909;28;20137;-75
2022/09/20 15:08:16;;;;;;;5.63;0.85;;;18.10;90.40;;;;;;4987803;28;20085;-76
2022/09/20 15:11:03;;;;;;;3.72;0.80;;;18.40;93.70;;;;;;4970569;28;20081;-74
2022/09/20 15:13:48;;;;;;;3.47;0.90;;;19.20;93.30;;;;;;4988878;28;20209;-75
2022/09/20 15:16:34;;;;;;;4.10;1.27;;;20.10;90.70;;;;;;4972595;28;20375;-74
2022/09/20 15:19:22;;;;;;;3.70;1.00;;;21.20;90.00;;;;;;4985460;28;20553;-75
2022/09/20 15:21:50;;;;;;;6.78;0.80;;;22.20;85.20;;;;;;4991525;28;20053;-78
2022/09/20 15:24:17;;;;;;;3.63;0.70;;;23.00;82.20;;;;;;4976626;28;20117;-79
2022/09/20 15:26:44;;;;;;;4.22;0.60;;;23.70;79.20;;;;;;4973380;28;20061;-79
2022/09/20 15:29:17;;;;;;;4.47;1.02;;;24.00;74.20;;;;;;4989024;28;20039;-80
2022/09/20 15:31:46;;;;;;;6.80;1.13;;;23.70;73.50;;;;;;4985528;28;20038;-79
2022/09/20 15:34:13;;;;;;;5.07;1.05;;;23.40;75.40;;;;;;4986083;28;20054;-79
2022/09/20 15:36:42;;;;;;;3.78;0.70;;;23.50;75.00;;;;;;4985876;28;20057;-79